This is the latest recevied weather packets stored in our database for station/object IU1OLT-5. If no packets are shown the sender has not sent any weather packets the latest 10 day(s).
| Time | Temp. | Humidity | Pressure | Rain* | Wind** | Luminosity | Snow |
|---|---|---|---|---|---|---|---|
| 1777857129 | 13.33° C | 63% | 1018.1 hPa | 0 mm | - | 0 W/m² | - |
| 1777856229 | 13.33° C | 61% | 1018 hPa | 0 mm | - | 0 W/m² | - |
| 1777855328 | 13.89° C | 60% | 1018.3 hPa | 0 mm | - | 0 W/m² | - |
| 1777854428 | 13.89° C | 58% | 1018.3 hPa | 0 mm | - | 0 W/m² | - |
| 1777853527 | 13.89° C | 60% | 1018.5 hPa | 0 mm | - | 0 W/m² | - |
| 1777852627 | 12.78° C | 65% | 1018.4 hPa | 0 mm | - | 0 W/m² | - |
| 1777851727 | 12.78° C | 67% | 1018.3 hPa | 0 mm | - | 0 W/m² | - |
| 1777850826 | 12.78° C | 69% | 1018.7 hPa | 0 mm | - | 0 W/m² | - |
| 1777849926 | 12.78° C | 69% | 1018.9 hPa | 0 mm | - | 0 W/m² | - |
| 1777849025 | 12.22° C | 72% | 1018.8 hPa | 0 mm | - | 0 W/m² | - |
| 1777848125 | 12.22° C | 71% | 1019 hPa | 0 mm | - | 0 W/m² | - |
| 1777847225 | 12.22° C | 75% | 1019.3 hPa | 0 mm | - | 0 W/m² | - |
| 1777846324 | 11.67° C | 75% | 1019.3 hPa | 0 mm | - | 0 W/m² | - |
| 1777845424 | 12.22° C | 73% | 1019.2 hPa | 0 mm | - | 0 W/m² | - |
| 1777844524 | 12.22° C | 74% | 1019.3 hPa | 0 mm | - | 0 W/m² | - |
| 1777843624 | 13.33° C | 70% | 1019.3 hPa | 0 mm | - | 0 W/m² | - |
| 1777842724 | 13.33° C | 70% | 1019.1 hPa | 0 mm | - | 0 W/m² | - |
| 1777841824 | 13.33° C | 72% | 1019 hPa | 0 mm | - | 0 W/m² | - |
| 1777840924 | 13.33° C | 73% | 1019.2 hPa | 0 mm | - | 0 W/m² | - |
| 1777840024 | 13.33° C | 72% | 1019.4 hPa | 0 mm | - | 0 W/m² | - |
| 1777839123 | 13.89° C | 71% | 1019 hPa | 0 mm | - | 0 W/m² | - |
| 1777838223 | 13.89° C | 71% | 1018.8 hPa | 0 mm | - | 0 W/m² | - |
| 1777837323 | 14.44° C | 73% | 1018.9 hPa | 0 mm | - | 0 W/m² | - |
| 1777836423 | 14.44° C | 74% | 1018.9 hPa | 0 mm | - | 0 W/m² | - |
| 1777835523 | 15° C | 73% | 1018.6 hPa | 0 mm | - | 0 W/m² | - |
* Rain latest hour (hover to see other rain measurements)
** Current wind speed in m/s (hover to see current wind gust speed)